sensor_id;sensor_type;location;lat;lon;timestamp;pressure;altitude;pressure_sealevel;temperature;humidity
31299;BME280;17927;52.350;13.402;2023-03-03T00:00:36;101895.50;;;6.42;49.87
31299;BME280;17927;52.350;13.402;2023-03-03T00:03:04;101904.59;;;6.39;49.70
31299;BME280;17927;52.350;13.402;2023-03-03T00:05:31;101908.41;;;6.35;49.71
31299;BME280;17927;52.350;13.402;2023-03-03T00:07:57;101918.28;;;6.35;49.79
31299;BME280;17927;52.350;13.402;2023-03-03T00:10:23;101915.78;;;6.32;49.69
31299;BME280;17927;52.350;13.402;2023-03-03T00:12:49;101905.16;;;6.30;49.95
31299;BME280;17927;52.350;13.402;2023-03-03T00:15:18;101913.25;;;6.29;49.84
31299;BME280;17927;52.350;13.402;2023-03-03T00:17:43;101907.13;;;6.27;49.97
31299;BME280;17927;52.350;13.402;2023-03-03T00:20:25;101924.25;;;6.24;50.12
31299;BME280;17927;52.350;13.402;2023-03-03T00:22:50;101940.63;;;6.19;49.80
31299;BME280;17927;52.350;13.402;2023-03-03T00:25:31;101942.44;;;6.19;50.09
31299;BME280;17927;52.350;13.402;2023-03-03T00:28:07;101941.75;;;6.15;49.95
31299;BME280;17927;52.350;13.402;2023-03-03T00:30:39;101948.06;;;6.14;50.07
31299;BME280;17927;52.350;13.402;2023-03-03T00:33:18;101932.06;;;6.13;50.09
31299;BME280;17927;52.350;13.402;2023-03-03T00:35:44;101932.22;;;6.09;50.05
31299;BME280;17927;52.350;13.402;2023-03-03T00:38:13;101940.34;;;6.08;50.33
31299;BME280;17927;52.350;13.402;2023-03-03T00:40:41;101922.53;;;6.07;50.30
31299;BME280;17927;52.350;13.402;2023-03-03T00:43:23;101921.56;;;6.08;50.44
31299;BME280;17927;52.350;13.402;2023-03-03T00:45:53;101914.47;;;6.07;50.30
31299;BME280;17927;52.350;13.402;2023-03-03T00:51:01;101902.00;;;6.06;50.29
31299;BME280;17927;52.350;13.402;2023-03-03T00:53:28;101898.28;;;6.08;50.09
31299;BME280;17927;52.350;13.402;2023-03-03T00:55:54;101898.19;;;6.10;50.27
31299;BME280;17927;52.350;13.402;2023-03-03T00:58:20;101895.34;;;6.13;50.35
31299;BME280;17927;52.350;13.402;2023-03-03T01:00:50;101895.28;;;6.15;50.12
31299;BME280;17927;52.350;13.402;2023-03-03T01:03:19;101910.38;;;6.16;50.37
31299;BME280;17927;52.350;13.402;2023-03-03T01:05:46;101894.22;;;6.17;50.26
31299;BME280;17927;52.350;13.402;2023-03-03T01:08:11;101882.53;;;6.18;50.17
31299;BME280;17927;52.350;13.402;2023-03-03T01:10:41;101892.41;;;6.18;50.37
31299;BME280;17927;52.350;13.402;2023-03-03T01:13:07;101889.63;;;6.19;50.17
31299;BME280;17927;52.350;13.402;2023-03-03T01:15:33;101898.47;;;6.21;50.28
31299;BME280;17927;52.350;13.402;2023-03-03T01:17:59;101896.63;;;6.22;50.06
31299;BME280;17927;52.350;13.402;2023-03-03T01:20:24;101895.84;;;6.20;49.77
31299;BME280;17927;52.350;13.402;2023-03-03T01:22:49;101897.75;;;6.18;49.87
31299;BME280;17927;52.350;13.402;2023-03-03T01:25:15;101900.53;;;6.16;49.83
31299;BME280;17927;52.350;13.402;2023-03-03T01:27:40;101901.50;;;6.15;49.85
31299;BME280;17927;52.350;13.402;2023-03-03T01:30:07;101889.91;;;6.15;49.97
31299;BME280;17927;52.350;13.402;2023-03-03T01:32:33;101891.59;;;6.16;49.97
31299;BME280;17927;52.350;13.402;2023-03-03T01:34:58;101887.13;;;6.16;50.00
31299;BME280;17927;52.350;13.402;2023-03-03T01:37:24;101872.75;;;6.17;49.95
31299;BME280;17927;52.350;13.402;2023-03-03T01:39:50;101879.94;;;6.17;49.90
31299;BME280;17927;52.350;13.402;2023-03-03T01:42:16;101875.59;;;6.14;49.82
31299;BME280;17927;52.350;13.402;2023-03-03T01:44:42;101876.66;;;6.12;49.79
31299;BME280;17927;52.350;13.402;2023-03-03T01:47:20;101879.41;;;6.10;49.73
31299;BME280;17927;52.350;13.402;2023-03-03T01:49:59;101868.78;;;6.08;49.72
31299;BME280;17927;52.350;13.402;2023-03-03T01:52:37;101867.88;;;6.08;49.76
31299;BME280;17927;52.350;13.402;2023-03-03T01:55:13;101869.81;;;6.06;49.81
31299;BME280;17927;52.350;13.402;2023-03-03T01:57:43;101859.94;;;6.06;49.72
31299;BME280;17927;52.350;13.402;2023-03-03T02:00:11;101863.41;;;6.08;49.72
31299;BME280;17927;52.350;13.402;2023-03-03T02:02:37;101868.88;;;6.07;49.69
31299;BME280;17927;52.350;13.402;2023-03-03T02:05:03;101865.31;;;6.06;49.70
31299;BME280;17927;52.350;13.402;2023-03-03T02:07:30;101874.41;;;6.04;49.84
31299;BME280;17927;52.350;13.402;2023-03-03T02:10:00;101859.31;;;6.01;49.95
31299;BME280;17927;52.350;13.402;2023-03-03T02:12:35;101864.91;;;5.97;49.71
31299;BME280;17927;52.350;13.402;2023-03-03T02:15:15;101862.41;;;5.93;49.89
31299;BME280;17927;52.350;13.402;2023-03-03T02:17:40;101863.44;;;5.91;49.91
31299;BME280;17927;52.350;13.402;2023-03-03T02:20:11;101862.66;;;5.89;49.93
31299;BME280;17927;52.350;13.402;2023-03-03T02:23:07;101858.34;;;5.86;49.89
31299;BME280;17927;52.350;13.402;2023-03-03T02:26:06;101874.59;;;5.83;49.79
31299;BME280;17927;52.350;13.402;2023-03-03T02:28:34;101878.50;;;5.77;49.83
31299;BME280;17927;52.350;13.402;2023-03-03T02:31:01;101889.22;;;5.77;49.79
31299;BME280;17927;52.350;13.402;2023-03-03T02:33:26;101883.84;;;5.77;49.96
31299;BME280;17927;52.350;13.402;2023-03-03T02:35:52;101882.13;;;5.76;49.96
31299;BME280;17927;52.350;13.402;2023-03-03T02:43:51;101885.38;;;5.66;49.74
31299;BME280;17927;52.350;13.402;2023-03-03T02:46:19;101889.81;;;5.67;49.76
31299;BME280;17927;52.350;13.402;2023-03-03T02:48:44;101888.00;;;5.67;49.95
31299;BME280;17927;52.350;13.402;2023-03-03T02:51:10;101887.06;;;5.68;50.10
31299;BME280;17927;52.350;13.402;2023-03-03T02:53:35;101885.22;;;5.69;50.14
31299;BME280;17927;52.350;13.402;2023-03-03T02:56:00;101881.69;;;5.68;50.01
31299;BME280;17927;52.350;13.402;2023-03-03T02:58:26;101876.22;;;5.70;50.09
31299;BME280;17927;52.350;13.402;2023-03-03T03:00:51;101873.66;;;5.68;49.90
31299;BME280;17927;52.350;13.402;2023-03-03T03:03:16;101882.63;;;5.67;49.95
31299;BME280;17927;52.350;13.402;2023-03-03T03:05:41;101893.28;;;5.69;50.12
31299;BME280;17927;52.350;13.402;2023-03-03T03:08:07;101878.13;;;5.68;50.03
31299;BME280;17927;52.350;13.402;2023-03-03T03:10:33;101874.59;;;5.67;49.95
31299;BME280;17927;52.350;13.402;2023-03-03T03:12:58;101874.59;;;5.67;49.85
31299;BME280;17927;52.350;13.402;2023-03-03T03:15:23;101874.59;;;5.67;49.91
31299;BME280;17927;52.350;13.402;2023-03-03T03:17:48;101888.06;;;5.66;50.06
31299;BME280;17927;52.350;13.402;2023-03-03T03:20:14;101899.69;;;5.66;50.16
31299;BME280;17927;52.350;13.402;2023-03-03T03:22:40;101897.06;;;5.64;50.09
31299;BME280;17927;52.350;13.402;2023-03-03T03:25:05;101899.84;;;5.63;50.10
31299;BME280;17927;52.350;13.402;2023-03-03T03:27:31;101907.78;;;5.64;50.10
31299;BME280;17927;52.350;13.402;2023-03-03T03:29:56;101893.59;;;5.62;50.06
31299;BME280;17927;52.350;13.402;2023-03-03T03:32:21;101905.09;;;5.64;50.02
31299;BME280;17927;52.350;13.402;2023-03-03T03:34:47;101910.41;;;5.66;50.28
31299;BME280;17927;52.350;13.402;2023-03-03T03:37:12;101906.84;;;5.66;50.22
31299;BME280;17927;52.350;13.402;2023-03-03T03:39:37;101906.84;;;5.66;50.14
31299;BME280;17927;52.350;13.402;2023-03-03T03:42:02;101912.28;;;5.64;50.13
31299;BME280;17927;52.350;13.402;2023-03-03T03:44:27;101900.78;;;5.62;50.24
31299;BME280;17927;52.350;13.402;2023-03-03T03:46:53;101903.56;;;5.60;50.39
31299;BME280;17927;52.350;13.402;2023-03-03T03:49:18;101902.56;;;5.61;50.40
31299;BME280;17927;52.350;13.402;2023-03-03T03:51:43;101911.41;;;5.63;50.32
31299;BME280;17927;52.350;13.402;2023-03-03T03:54:08;101906.94;;;5.64;50.34
31299;BME280;17927;52.350;13.402;2023-03-03T03:56:34;101915.03;;;5.62;50.27
31299;BME280;17927;52.350;13.402;2023-03-03T03:58:59;101896.38;;;5.61;50.18
31299;BME280;17927;52.350;13.402;2023-03-03T04:01:25;101905.25;;;5.61;50.44
31299;BME280;17927;52.350;13.402;2023-03-03T04:03:50;101903.47;;;5.62;50.39
31299;BME280;17927;52.350;13.402;2023-03-03T04:06:16;101907.94;;;5.61;50.54
31299;BME280;17927;52.350;13.402;2023-03-03T04:08:41;101895.41;;;5.62;50.53
31299;BME280;17927;52.350;13.402;2023-03-03T04:11:07;101891.78;;;5.63;50.68
31299;BME280;17927;52.350;13.402;2023-03-03T04:13:34;101891.00;;;5.61;50.59
31299;BME280;17927;52.350;13.402;2023-03-03T04:16:00;101883.91;;;5.60;50.46
31299;BME280;17927;52.350;13.402;2023-03-03T04:18:26;101883.22;;;5.56;50.49
31299;BME280;17927;52.350;13.402;2023-03-03T04:20:52;101874.28;;;5.56;50.44
31299;BME280;17927;52.350;13.402;2023-03-03T04:23:18;101883.38;;;5.53;50.37
31299;BME280;17927;52.350;13.402;2023-03-03T04:25:45;101870.06;;;5.52;50.61
31299;BME280;17927;52.350;13.402;2023-03-03T04:28:10;101868.31;;;5.51;50.46
31299;BME280;17927;52.350;13.402;2023-03-03T04:30:35;101871.06;;;5.49;50.49
31299;BME280;17927;52.350;13.402;2023-03-03T04:33:01;101879.22;;;5.47;50.48
31299;BME280;17927;52.350;13.402;2023-03-03T04:35:26;101872.28;;;5.43;50.52
31299;BME280;17927;52.350;13.402;2023-03-03T04:37:51;101869.69;;;5.42;50.62
31299;BME280;17927;52.350;13.402;2023-03-03T04:40:16;101871.50;;;5.41;50.61
31299;BME280;17927;52.350;13.402;2023-03-03T04:42:42;101872.44;;;5.40;50.67
31299;BME280;17927;52.350;13.402;2023-03-03T04:45:07;101876.94;;;5.40;50.71
31299;BME280;17927;52.350;13.402;2023-03-03T04:47:33;101876.94;;;5.40;50.83
31299;BME280;17927;52.350;13.402;2023-03-03T04:49:58;101867.16;;;5.39;50.72
31299;BME280;17927;52.350;13.402;2023-03-03T04:52:24;101861.91;;;5.37;50.80
31299;BME280;17927;52.350;13.402;2023-03-03T04:54:50;101873.56;;;5.36;50.87
31299;BME280;17927;52.350;13.402;2023-03-03T04:57:15;101880.72;;;5.36;50.78
31299;BME280;17927;52.350;13.402;2023-03-03T04:59:40;101873.72;;;5.33;50.83
31299;BME280;17927;52.350;13.402;2023-03-03T05:02:05;101875.63;;;5.31;50.92
31299;BME280;17927;52.350;13.402;2023-03-03T05:04:32;101881.91;;;5.30;50.84
31299;BME280;17927;52.350;13.402;2023-03-03T05:06:57;101885.53;;;5.29;50.92
31299;BME280;17927;52.350;13.402;2023-03-03T05:09:23;101888.31;;;5.27;50.99
31299;BME280;17927;52.350;13.402;2023-03-03T05:11:48;101882.06;;;5.27;50.91
31299;BME280;17927;52.350;13.402;2023-03-03T05:14:13;101879.34;;;5.28;51.05
31299;BME280;17927;52.350;13.402;2023-03-03T05:16:38;101871.91;;;5.33;51.09
31299;BME280;17927;52.350;13.402;2023-03-03T05:19:04;101868.13;;;5.38;51.17
31299;BME280;17927;52.350;13.402;2023-03-03T05:21:29;101859.91;;;5.41;51.11
31299;BME280;17927;52.350;13.402;2023-03-03T05:23:55;101855.34;;;5.43;50.92
31299;BME280;17927;52.350;13.402;2023-03-03T05:26:20;101851.72;;;5.44;50.70
31299;BME280;17927;52.350;13.402;2023-03-03T05:28:46;101863.19;;;5.46;50.73
31299;BME280;17927;52.350;13.402;2023-03-03T05:31:11;101853.44;;;5.45;50.73
31299;BME280;17927;52.350;13.402;2023-03-03T05:33:36;101874.91;;;5.45;50.50
31299;BME280;17927;52.350;13.402;2023-03-03T05:36:02;101873.16;;;5.44;50.83
31299;BME280;17927;52.350;13.402;2023-03-03T05:38:27;101872.28;;;5.43;50.70
31299;BME280;17927;52.350;13.402;2023-03-03T05:40:52;101877.63;;;5.43;50.56
31299;BME280;17927;52.350;13.402;2023-03-03T05:43:18;101881.25;;;5.42;50.83
31299;BME280;17927;52.350;13.402;2023-03-03T05:45:44;101873.38;;;5.39;50.86
31299;BME280;17927;52.350;13.402;2023-03-03T05:48:09;101868.97;;;5.38;50.67
31299;BME280;17927;52.350;13.402;2023-03-03T05:50:35;101877.97;;;5.37;50.79
31299;BME280;17927;52.350;13.402;2023-03-03T05:53:00;101875.38;;;5.36;51.03
31299;BME280;17927;52.350;13.402;2023-03-03T05:55:25;101877.19;;;5.35;50.89
31299;BME280;17927;52.350;13.402;2023-03-03T05:57:50;101888.06;;;5.32;50.82
31299;BME280;17927;52.350;13.402;2023-03-03T06:00:16;101882.78;;;5.30;50.99
31299;BME280;17927;52.350;13.402;2023-03-03T06:02:42;101883.75;;;5.29;50.93
31299;BME280;17927;52.350;13.402;2023-03-03T06:05:08;101885.53;;;5.29;51.15
31299;BME280;17927;52.350;13.402;2023-03-03T06:07:34;101893.44;;;5.32;51.25
31299;BME280;17927;52.350;13.402;2023-03-03T06:10:00;101891.78;;;5.29;51.12
31299;BME280;17927;52.350;13.402;2023-03-03T06:12:25;101896.25;;;5.29;51.08
31299;BME280;17927;52.350;13.402;2023-03-03T06:14:51;101894.53;;;5.28;51.19
31299;BME280;17927;52.350;13.402;2023-03-03T06:17:16;101892.78;;;5.27;51.20
31299;BME280;17927;52.350;13.402;2023-03-03T06:19:41;101899.88;;;5.28;51.21
31299;BME280;17927;52.350;13.402;2023-03-03T06:22:07;101893.72;;;5.26;51.28
31299;BME280;17927;52.350;13.402;2023-03-03T06:24:32;101900.78;;;5.28;51.54
31299;BME280;17927;52.350;13.402;2023-03-03T06:26:58;101889.16;;;5.28;51.37
31299;BME280;17927;52.350;13.402;2023-03-03T06:29:24;101903.34;;;5.30;51.31
31299;BME280;17927;52.350;13.402;2023-03-03T06:31:49;101912.19;;;5.32;51.52
31299;BME280;17927;52.350;13.402;2023-03-03T06:34:14;101910.34;;;5.32;51.98
31299;BME280;17927;52.350;13.402;2023-03-03T06:36:39;101918.34;;;5.34;51.59
31299;BME280;17927;52.350;13.402;2023-03-03T06:39:05;101919.13;;;5.36;51.43
31299;BME280;17927;52.350;13.402;2023-03-03T06:41:30;101911.09;;;5.36;51.48
31299;BME280;17927;52.350;13.402;2023-03-03T06:43:56;101920.06;;;5.35;51.56
31299;BME280;17927;52.350;13.402;2023-03-03T06:46:24;101924.47;;;5.36;51.79
31299;BME280;17927;52.350;13.402;2023-03-03T06:48:50;101918.25;;;5.36;51.75
31299;BME280;17927;52.350;13.402;2023-03-03T06:51:30;101919.13;;;5.36;51.73
31299;BME280;17927;52.350;13.402;2023-03-03T06:53:57;101921.88;;;5.34;51.66
31299;BME280;17927;52.350;13.402;2023-03-03T06:56:24;101923.59;;;5.36;51.79
31299;BME280;17927;52.350;13.402;2023-03-03T06:58:53;101927.06;;;5.38;51.73
31299;BME280;17927;52.350;13.402;2023-03-03T07:01:18;101932.34;;;5.39;51.96
31299;BME280;17927;52.350;13.402;2023-03-03T07:03:44;101928.72;;;5.40;51.75
31299;BME280;17927;52.350;13.402;2023-03-03T07:06:20;101939.28;;;5.43;51.84
31299;BME280;17927;52.350;13.402;2023-03-03T07:08:46;101936.53;;;5.45;51.83
31299;BME280;17927;52.350;13.402;2023-03-03T07:11:16;101939.03;;;5.48;51.76
31299;BME280;17927;52.350;13.402;2023-03-03T07:13:46;101945.28;;;5.48;51.84
31299;BME280;17927;52.350;13.402;2023-03-03T07:16:12;101957.78;;;5.48;51.70
31299;BME280;17927;52.350;13.402;2023-03-03T07:18:52;101963.94;;;5.50;51.72
31299;BME280;17927;52.350;13.402;2023-03-03T07:21:20;101962.22;;;5.49;51.82
31299;BME280;17927;52.350;13.402;2023-03-03T07:23:48;101965.78;;;5.49;51.83
31299;BME280;17927;52.350;13.402;2023-03-03T07:26:19;101963.88;;;5.52;51.73
31299;BME280;17927;52.350;13.402;2023-03-03T07:28:55;101961.25;;;5.50;51.98
31299;BME280;17927;52.350;13.402;2023-03-03T07:31:27;101952.22;;;5.53;52.03
31299;BME280;17927;52.350;13.402;2023-03-03T07:33:53;101949.94;;;5.45;51.85
31299;BME280;17927;52.350;13.402;2023-03-03T07:36:25;101935.50;;;5.47;51.93
31299;BME280;17927;52.350;13.402;2023-03-03T07:39:00;101942.44;;;5.52;52.00
31299;BME280;17927;52.350;13.402;2023-03-03T07:41:26;101946.66;;;5.56;52.09
31299;BME280;17927;52.350;13.402;2023-03-03T07:46:43;101967.25;;;5.55;51.93
31299;BME280;17927;52.350;13.402;2023-03-03T07:49:19;101971.75;;;5.55;51.93
31299;BME280;17927;52.350;13.402;2023-03-03T07:51:45;101975.22;;;5.57;51.98
31299;BME280;17927;52.350;13.402;2023-03-03T07:56:52;101978.63;;;5.60;52.04
31299;BME280;17927;52.350;13.402;2023-03-03T07:59:21;101974.91;;;5.63;52.09
31299;BME280;17927;52.350;13.402;2023-03-03T08:01:55;101964.19;;;5.63;52.17
31299;BME280;17927;52.350;13.402;2023-03-03T08:04:38;101967.66;;;5.65;52.12
31299;BME280;17927;52.350;13.402;2023-03-03T08:07:13;101970.47;;;5.62;51.94
31299;BME280;17927;52.350;13.402;2023-03-03T08:09:47;101975.84;;;5.62;52.04
31299;BME280;17927;52.350;13.402;2023-03-03T08:12:19;101975.84;;;5.62;51.91
31299;BME280;17927;52.350;13.402;2023-03-03T08:14:50;101973.97;;;5.64;51.99
31299;BME280;17927;52.350;13.402;2023-03-03T08:17:20;101966.69;;;5.66;52.05
31299;BME280;17927;52.350;13.402;2023-03-03T08:19:45;101970.19;;;5.68;52.27
31299;BME280;17927;52.350;13.402;2023-03-03T08:22:15;101979.84;;;5.71;52.20
31299;BME280;17927;52.350;13.402;2023-03-03T08:24:41;101977.03;;;5.74;52.11
31299;BME280;17927;52.350;13.402;2023-03-03T08:27:06;101977.81;;;5.76;52.32
31299;BME280;17927;52.350;13.402;2023-03-03T08:29:32;101978.56;;;5.78;52.32
31299;BME280;17927;52.350;13.402;2023-03-03T08:31:57;101970.47;;;5.79;52.29
31299;BME280;17927;52.350;13.402;2023-03-03T08:34:22;101974.00;;;5.80;52.31
31299;BME280;17927;52.350;13.402;2023-03-03T08:36:48;101978.34;;;5.83;52.20
31299;BME280;17927;52.350;13.402;2023-03-03T08:39:14;101976.41;;;5.85;52.22
31299;BME280;17927;52.350;13.402;2023-03-03T08:41:39;101976.34;;;5.86;52.33
31299;BME280;17927;52.350;13.402;2023-03-03T08:44:09;101975.31;;;5.89;52.32
31299;BME280;17927;52.350;13.402;2023-03-03T08:46:34;101975.16;;;5.92;52.22
31299;BME280;17927;52.350;13.402;2023-03-03T08:48:59;101976.78;;;5.94;52.17
31299;BME280;17927;52.350;13.402;2023-03-03T08:51:24;101976.56;;;5.99;52.49
31299;BME280;17927;52.350;13.402;2023-03-03T08:53:50;101982.66;;;6.03;52.28
31299;BME280;17927;52.350;13.402;2023-03-03T08:56:16;101978.09;;;6.05;52.18
31299;BME280;17927;52.350;13.402;2023-03-03T08:58:41;101981.63;;;6.05;52.29
31299;BME280;17927;52.350;13.402;2023-03-03T09:01:12;101984.25;;;6.07;52.41
31299;BME280;17927;52.350;13.402;2023-03-03T09:03:37;101985.00;;;6.09;52.16
31299;BME280;17927;52.350;13.402;2023-03-03T09:06:02;101979.63;;;6.09;52.41
31299;BME280;17927;52.350;13.402;2023-03-03T09:08:28;101984.03;;;6.10;52.39
31299;BME280;17927;52.350;13.402;2023-03-03T09:10:53;101984.84;;;6.12;52.31
31299;BME280;17927;52.350;13.402;2023-03-03T09:13:18;101985.72;;;6.13;52.26
31299;BME280;17927;52.350;13.402;2023-03-03T09:15:45;101984.78;;;6.14;52.27
31299;BME280;17927;52.350;13.402;2023-03-03T09:20:49;101971.25;;;6.15;52.38
31299;BME280;17927;52.350;13.402;2023-03-03T09:25:53;101977.31;;;6.19;52.47
31299;BME280;17927;52.350;13.402;2023-03-03T09:28:30;101972.66;;;6.22;52.38
31299;BME280;17927;52.350;13.402;2023-03-03T09:30:57;101977.00;;;6.25;52.61
31299;BME280;17927;52.350;13.402;2023-03-03T09:36:27;101972.13;;;6.32;52.43
31299;BME280;17927;52.350;13.402;2023-03-03T09:38:54;101980.09;;;6.33;52.40
31299;BME280;17927;52.350;13.402;2023-03-03T09:49:31;101968.34;;;6.52;52.66
31299;BME280;17927;52.350;13.402;2023-03-03T09:52:35;101973.69;;;6.52;52.52
31299;BME280;17927;52.350;13.402;2023-03-03T09:55:09;101980.19;;;6.48;52.51
31299;BME280;17927;52.350;13.402;2023-03-03T10:03:25;101988.84;;;6.53;52.62
31299;BME280;17927;52.350;13.402;2023-03-03T10:08:53;101982.00;;;6.63;52.54
31299;BME280;17927;52.350;13.402;2023-03-03T10:11:35;101974.56;;;6.68;52.65
31299;BME280;17927;52.350;13.402;2023-03-03T10:14:23;101977.59;;;6.78;52.69
31299;BME280;17927;52.350;13.402;2023-03-03T10:17:05;101980.78;;;6.85;52.80
31299;BME280;17927;52.350;13.402;2023-03-03T10:20:05;101978.72;;;6.90;52.65
31299;BME280;17927;52.350;13.402;2023-03-03T10:22:51;101974.97;;;6.93;52.44
31299;BME280;17927;52.350;13.402;2023-03-03T10:25:37;101982.06;;;6.94;52.61
31299;BME280;17927;52.350;13.402;2023-03-03T10:28:41;101980.25;;;6.94;52.65
31299;BME280;17927;52.350;13.402;2023-03-03T10:34:07;101967.41;;;6.99;52.40
31299;BME280;17927;52.350;13.402;2023-03-03T10:36:52;101965.41;;;7.03;52.47
31299;BME280;17927;52.350;13.402;2023-03-03T10:39:31;101967.75;;;7.09;52.66
31299;BME280;17927;52.350;13.402;2023-03-03T10:42:13;101962.88;;;7.16;52.49
31299;BME280;17927;52.350;13.402;2023-03-03T10:45:06;101977.69;;;7.23;52.76
31299;BME280;17927;52.350;13.402;2023-03-03T10:48:07;101966.56;;;7.29;52.37
31299;BME280;17927;52.350;13.402;2023-03-03T10:50:58;101963.59;;;7.34;52.42
31299;BME280;17927;52.350;13.402;2023-03-03T10:53:49;101970.16;;;7.44;52.15
31299;BME280;17927;52.350;13.402;2023-03-03T10:56:32;101971.50;;;7.52;52.34
31299;BME280;17927;52.350;13.402;2023-03-03T11:02:26;101964.16;;;7.70;52.28
31299;BME280;17927;52.350;13.402;2023-03-03T11:05:16;101965.28;;;7.80;52.49
31299;BME280;17927;52.350;13.402;2023-03-03T11:08:04;101967.59;;;7.86;52.60
31299;BME280;17927;52.350;13.402;2023-03-03T11:13:22;101966.06;;;7.97;52.21
31299;BME280;17927;52.350;13.402;2023-03-03T11:16:08;101960.41;;;8.01;51.72
31299;BME280;17927;52.350;13.402;2023-03-03T11:19:01;101965.59;;;8.04;51.83
31299;BME280;17927;52.350;13.402;2023-03-03T11:21:45;101966.44;;;8.05;52.01
31299;BME280;17927;52.350;13.402;2023-03-03T11:24:44;101964.34;;;8.10;51.58
31299;BME280;17927;52.350;13.402;2023-03-03T11:27:27;101966.91;;;8.12;51.99
31299;BME280;17927;52.350;13.402;2023-03-03T11:33:10;101965.47;;;8.20;51.64
31299;BME280;17927;52.350;13.402;2023-03-03T11:35:50;101957.00;;;8.27;51.69
31299;BME280;17927;52.350;13.402;2023-03-03T11:41:14;101969.03;;;8.35;51.59
31299;BME280;17927;52.350;13.402;2023-03-03T11:43:49;101962.56;;;8.38;51.32
31299;BME280;17927;52.350;13.402;2023-03-03T11:46:21;101967.75;;;8.41;51.17
31299;BME280;17927;52.350;13.402;2023-03-03T11:49:04;101971.09;;;8.45;51.23
31299;BME280;17927;52.350;13.402;2023-03-03T11:51:49;101962.06;;;8.46;51.42
31299;BME280;17927;52.350;13.402;2023-03-03T11:54:31;101970.94;;;8.48;51.36
31299;BME280;17927;52.350;13.402;2023-03-03T11:57:15;101955.56;;;8.50;51.22
31299;BME280;17927;52.350;13.402;2023-03-03T11:59:47;101951.78;;;8.52;51.14
31299;BME280;17927;52.350;13.402;2023-03-03T12:02:44;101948.06;;;8.55;51.50
31299;BME280;17927;52.350;13.402;2023-03-03T12:05:29;101941.59;;;8.58;51.43
31299;BME280;17927;52.350;13.402;2023-03-03T12:08:13;101934.16;;;8.61;51.16
31299;BME280;17927;52.350;13.402;2023-03-03T12:13:25;101931.06;;;8.67;51.45
31299;BME280;17927;52.350;13.402;2023-03-03T12:18:52;101905.03;;;8.81;51.46
31299;BME280;17927;52.350;13.402;2023-03-03T12:24:29;101902.91;;;8.86;51.40
31299;BME280;17927;52.350;13.402;2023-03-03T12:30:15;101908.28;;;8.86;50.76
31299;BME280;17927;52.350;13.402;2023-03-03T12:36:11;101895.78;;;8.85;50.80
31299;BME280;17927;52.350;13.402;2023-03-03T12:38:55;101894.25;;;8.81;50.71
31299;BME280;17927;52.350;13.402;2023-03-03T12:41:39;101887.25;;;8.78;50.81
31299;BME280;17927;52.350;13.402;2023-03-03T12:46:56;101882.72;;;8.79;50.79
31299;BME280;17927;52.350;13.402;2023-03-03T12:49:42;101880.78;;;8.81;51.00
31299;BME280;17927;52.350;13.402;2023-03-03T12:55:04;101876.59;;;8.90;50.88
31299;BME280;17927;52.350;13.402;2023-03-03T12:57:57;101882.63;;;8.93;50.78
31299;BME280;17927;52.350;13.402;2023-03-03T13:00:49;101876.28;;;8.94;51.00
31299;BME280;17927;52.350;13.402;2023-03-03T13:03:35;101880.59;;;8.97;51.16
31299;BME280;17927;52.350;13.402;2023-03-03T13:14:27;101868.59;;;8.88;50.64
31299;BME280;17927;52.350;13.402;2023-03-03T13:17:04;101872.38;;;8.86;50.48
31299;BME280;17927;52.350;13.402;2023-03-03T13:19:40;101859.88;;;8.84;50.73
31299;BME280;17927;52.350;13.402;2023-03-03T13:22:13;101857.19;;;8.84;50.87
31299;BME280;17927;52.350;13.402;2023-03-03T13:24:47;101856.22;;;8.86;50.71
31299;BME280;17927;52.350;13.402;2023-03-03T13:27:19;101857.81;;;8.88;50.77
31299;BME280;17927;52.350;13.402;2023-03-03T13:30:03;101854.06;;;8.91;50.69
31299;BME280;17927;52.350;13.402;2023-03-03T13:32:49;101853.97;;;8.92;50.82
31299;BME280;17927;52.350;13.402;2023-03-03T13:35:35;101855.28;;;8.99;50.98
31299;BME280;17927;52.350;13.402;2023-03-03T13:38:05;101848.69;;;9.04;50.82
31299;BME280;17927;52.350;13.402;2023-03-03T13:41:18;101859.59;;;9.15;51.01
31299;BME280;17927;52.350;13.402;2023-03-03T13:46:54;101847.84;;;9.29;50.92
31299;BME280;17927;52.350;13.402;2023-03-03T13:49:50;101849.47;;;9.32;50.65
31299;BME280;17927;52.350;13.402;2023-03-03T13:52:21;101853.03;;;9.32;50.49
31299;BME280;17927;52.350;13.402;2023-03-03T13:54:59;101850.22;;;9.34;50.47
31299;BME280;17927;52.350;13.402;2023-03-03T13:57:44;101851.94;;;9.35;50.38
31299;BME280;17927;52.350;13.402;2023-03-03T14:00:21;101847.22;;;9.38;50.47
31299;BME280;17927;52.350;13.402;2023-03-03T14:05:59;101827.25;;;9.41;50.73
31299;BME280;17927;52.350;13.402;2023-03-03T14:11:13;101821.28;;;9.49;50.55
31299;BME280;17927;52.350;13.402;2023-03-03T14:16:37;101821.63;;;9.57;50.73
31299;BME280;17927;52.350;13.402;2023-03-03T14:19:10;101823.22;;;9.59;50.36
31299;BME280;17927;52.350;13.402;2023-03-03T14:21:44;101823.84;;;9.63;50.57
31299;BME280;17927;52.350;13.402;2023-03-03T14:24:17;101826.22;;;9.68;50.42
31299;BME280;17927;52.350;13.402;2023-03-03T14:26:48;101818.78;;;9.71;50.34
31299;BME280;17927;52.350;13.402;2023-03-03T14:29:34;101820.28;;;9.75;50.56
31299;BME280;17927;52.350;13.402;2023-03-03T14:32:01;101815.63;;;9.78;50.34
31299;BME280;17927;52.350;13.402;2023-03-03T14:34:39;101810.97;;;9.80;50.46
31299;BME280;17927;52.350;13.402;2023-03-03T14:40:14;101804.75;;;9.79;50.35
31299;BME280;17927;52.350;13.402;2023-03-03T14:48:15;101789.41;;;9.67;50.02
31299;BME280;17927;52.350;13.402;2023-03-03T14:51:29;101792.38;;;9.64;50.18
31299;BME280;17927;52.350;13.402;2023-03-03T14:53:34;101792.59;;;9.60;50.08